createdAt,value
2017-04-15T00:00:57.151Z,8.7
2017-04-15T00:01:59.552Z,8.5
2017-04-15T00:03:02.122Z,8.5
2017-04-15T00:04:04.520Z,8.4
2017-04-15T00:05:07.001Z,8.5
2017-04-15T00:06:09.398Z,8.5
2017-04-15T00:07:11.864Z,8.4
2017-04-15T00:08:14.297Z,8.4
2017-04-15T00:09:16.722Z,8.5
2017-04-15T00:10:19.121Z,8.6
2017-04-15T00:11:21.513Z,8.4
2017-04-15T00:12:23.936Z,8.4
2017-04-15T00:13:26.352Z,8.4
2017-04-15T00:14:28.831Z,8.4
2017-04-15T00:15:31.229Z,8.4
2017-04-15T00:16:33.628Z,8.5
2017-04-15T00:17:36.041Z,8.5
2017-04-15T00:18:38.445Z,8.4
2017-04-15T00:19:41.716Z,8.4
2017-04-15T00:20:44.095Z,8.4
2017-04-15T00:21:46.509Z,8.5
2017-04-15T00:22:48.941Z,8.6
2017-04-15T00:23:51.314Z,8.6
2017-04-15T00:24:53.704Z,8.5
2017-04-15T00:25:56.102Z,8.5
2017-04-15T00:26:58.586Z,8.5
2017-04-15T00:28:00.955Z,8.6
2017-04-15T00:29:03.367Z,8.5
2017-04-15T00:30:05.799Z,8.6
2017-04-15T00:31:08.939Z,8.6
2017-04-15T00:32:11.378Z,8.5
2017-04-15T00:33:13.868Z,8.5
2017-04-15T00:34:16.486Z,8.4
2017-04-15T00:35:19.831Z,8.4
2017-04-15T00:36:22.209Z,8.4
2017-04-15T00:37:24.589Z,8.4
2017-04-15T00:38:27.023Z,8.5
2017-04-15T00:39:30.075Z,8.5
2017-04-15T00:40:32.506Z,8.5
2017-04-15T00:41:35.225Z,8.4
2017-04-15T00:42:37.928Z,8.5
2017-04-15T00:43:40.300Z,8.4
2017-04-15T00:44:42.721Z,8.4
2017-04-15T00:45:45.078Z,8.4
2017-04-15T00:46:47.460Z,8.4
2017-04-15T00:47:49.840Z,8.4
2017-04-15T00:48:52.272Z,8.3
2017-04-15T00:49:54.682Z,8.3
2017-04-15T00:50:57.103Z,8.4
2017-04-15T00:51:59.488Z,8.4
2017-04-15T00:53:01.872Z,8.5
2017-04-15T00:54:04.275Z,8.5
2017-04-15T00:55:06.659Z,8.6
2017-04-15T00:56:09.043Z,8.6
2017-04-15T00:57:11.475Z,8.5
2017-04-15T00:58:13.842Z,8.5
2017-04-15T00:59:16.314Z,8.6
2017-04-15T01:00:18.729Z,8.4
2017-04-15T01:01:21.141Z,8.4
2017-04-15T01:02:23.531Z,8.4
2017-04-15T01:03:26.680Z,8.4
2017-04-15T01:04:29.111Z,8.3
2017-04-15T01:05:31.704Z,8.1
2017-04-15T01:06:34.504Z,8.3
2017-04-15T01:07:36.869Z,8.3
2017-04-15T01:08:39.302Z,8.2
2017-04-15T01:09:41.703Z,8.2
2017-04-15T01:10:44.082Z,8.3
2017-04-15T01:11:46.414Z,8.1
2017-04-15T01:12:48.835Z,8.1
2017-04-15T01:13:51.219Z,8.1
2017-04-15T01:14:53.578Z,8.1
2017-04-15T01:15:55.985Z,8.1
2017-04-15T01:16:58.361Z,7.9
2017-04-15T01:18:00.804Z,8
2017-04-15T01:19:03.196Z,7.9
2017-04-15T01:20:05.542Z,7.8
2017-04-15T01:21:08.017Z,7.8
2017-04-15T01:22:10.436Z,7.7
2017-04-15T01:23:12.813Z,7.8
2017-04-15T01:24:15.242Z,7.7
2017-04-15T01:25:17.592Z,7.7
2017-04-15T01:26:19.969Z,7.7
2017-04-15T01:27:22.346Z,7.7
2017-04-15T01:28:24.740Z,7.6
2017-04-15T01:29:27.198Z,7.6
2017-04-15T01:30:29.599Z,7.6
2017-04-15T01:31:32.650Z,7.6
2017-04-15T01:32:35.047Z,7.5
2017-04-15T01:33:37.408Z,7.4
2017-04-15T01:34:39.778Z,7.3
2017-04-15T01:35:42.146Z,7.4
2017-04-15T01:36:44.534Z,7.4
2017-04-15T01:37:46.905Z,7.3
2017-04-15T01:38:49.334Z,7.3
2017-04-15T01:39:51.712Z,7.3
2017-04-15T01:40:54.124Z,7.4
2017-04-15T01:41:56.498Z,7.4
2017-04-15T01:42:58.915Z,7.4
2017-04-15T01:44:01.296Z,7.5
2017-04-15T01:45:12.612Z,7.5
2017-04-15T01:46:14.980Z,7.4
2017-04-15T01:47:17.379Z,7.5
2017-04-15T01:48:19.765Z,7.5
2017-04-15T01:49:22.122Z,7.4
2017-04-15T01:50:24.473Z,7.6
2017-04-15T01:51:26.836Z,7.5
2017-04-15T01:52:29.280Z,7.6
2017-04-15T01:53:31.709Z,7.6
2017-04-15T01:54:34.076Z,7.6
2017-04-15T01:55:36.499Z,7.7
2017-04-15T01:56:38.842Z,7.5
2017-04-15T01:57:41.246Z,7.6
2017-04-15T01:58:43.636Z,7.7
2017-04-15T01:59:46.011Z,7.7
2017-04-15T02:00:48.420Z,7.7
2017-04-15T02:01:50.809Z,7.7
2017-04-15T02:02:53.249Z,7.6
2017-04-15T02:03:55.638Z,7.7
2017-04-15T02:04:58.003Z,7.7
2017-04-15T02:06:00.400Z,7.7
2017-04-15T02:07:02.787Z,7.7
2017-04-15T02:08:05.499Z,7.6
2017-04-15T02:09:07.849Z,7.6
2017-04-15T02:10:10.212Z,7.6
2017-04-15T02:11:12.571Z,7.6
2017-04-15T02:12:14.939Z,7.6
2017-04-15T02:13:17.377Z,7.5
2017-04-15T02:14:19.768Z,7.5
2017-04-15T02:15:22.198Z,7.6
2017-04-15T02:16:24.557Z,7.6
2017-04-15T02:17:26.920Z,7.5
2017-04-15T02:18:29.349Z,7.4
2017-04-15T02:19:31.760Z,7.4
2017-04-15T02:20:34.159Z,7.5
2017-04-15T02:21:36.565Z,7.5
2017-04-15T02:22:38.937Z,7.5
2017-04-15T02:23:41.633Z,7.6
2017-04-15T02:24:44.056Z,7.6
2017-04-15T02:25:46.447Z,7.5
2017-04-15T02:26:49.511Z,7.6
2017-04-15T02:27:51.918Z,7.6
2017-04-15T02:28:54.326Z,7.5
2017-04-15T02:29:56.672Z,7.5
2017-04-15T02:30:59.060Z,7.5
2017-04-15T02:32:02.280Z,7.4
2017-04-15T02:33:04.700Z,7.5
2017-04-15T02:34:07.115Z,7.4
2017-04-15T02:35:09.490Z,7.5
2017-04-15T02:36:11.867Z,7.4
2017-04-15T02:37:14.297Z,7.4
2017-04-15T02:38:16.664Z,7.4
2017-04-15T02:39:19.137Z,7.3
2017-04-15T02:40:21.565Z,7.4
2017-04-15T02:41:23.935Z,7.3
2017-04-15T02:42:26.303Z,7.4
2017-04-15T02:43:28.666Z,7.3
2017-04-15T02:44:39.372Z,7.3
2017-04-15T02:45:47.048Z,7.3
2017-04-15T02:46:49.460Z,7.4
2017-04-15T02:47:52.518Z,7.3
2017-04-15T02:48:54.869Z,7.3
2017-04-15T02:49:57.281Z,7.4
2017-04-15T02:50:59.656Z,7.4
2017-04-15T02:52:02.070Z,7.4
2017-04-15T02:53:04.497Z,7.4
2017-04-15T02:54:06.865Z,7.4
2017-04-15T02:55:09.302Z,7.4
2017-04-15T02:56:11.697Z,7.4
2017-04-15T02:57:14.066Z,7.5
2017-04-15T02:58:16.456Z,7.4
2017-04-15T02:59:18.896Z,7.4
2017-04-15T03:00:21.256Z,7.4
2017-04-15T03:01:23.672Z,7.5
2017-04-15T03:02:26.060Z,7.4
2017-04-15T03:03:28.440Z,7.5
2017-04-15T03:04:30.829Z,7.5
2017-04-15T03:05:33.250Z,7.4
2017-04-15T03:06:35.624Z,7.4
2017-04-15T03:07:38.046Z,7.4
2017-04-15T03:08:40.414Z,7.3
2017-04-15T03:09:42.810Z,7.4
2017-04-15T03:10:45.299Z,7.4
2017-04-15T03:11:47.670Z,7.3
2017-04-15T03:12:50.064Z,7.3
2017-04-15T03:13:52.488Z,7.3
2017-04-15T03:14:55.685Z,7.4
2017-04-15T03:15:58.091Z,7.4
2017-04-15T03:17:00.456Z,7.4
2017-04-15T03:18:02.859Z,7.4
2017-04-15T03:19:05.262Z,7.4
2017-04-15T03:20:07.627Z,7.5
2017-04-15T03:21:10.055Z,7.5
2017-04-15T03:22:12.401Z,7.4
2017-04-15T03:23:14.856Z,7.5
2017-04-15T03:24:17.252Z,7.4
2017-04-15T03:25:19.619Z,7.6
2017-04-15T03:26:22.067Z,7.5
2017-04-15T03:27:24.474Z,7.5
2017-04-15T03:28:26.870Z,7.6
2017-04-15T03:29:29.244Z,7.5
2017-04-15T03:30:31.653Z,7.4
2017-04-15T03:31:34.051Z,7.5
2017-04-15T03:32:36.459Z,7.6
2017-04-15T03:33:38.909Z,7.6
2017-04-15T03:34:41.271Z,7.5
2017-04-15T03:35:43.712Z,7.6
2017-04-15T03:36:46.098Z,7.7
2017-04-15T03:37:48.460Z,7.6
2017-04-15T03:38:50.848Z,7.6
2017-04-15T03:39:53.208Z,7.7
2017-04-15T03:40:55.585Z,7.6
2017-04-15T03:41:58.277Z,7.6
2017-04-15T03:43:00.652Z,7.6
2017-04-15T03:44:03.079Z,7.6
2017-04-15T03:45:05.489Z,7.6
2017-04-15T03:46:07.927Z,7.6
2017-04-15T03:47:10.322Z,7.7
2017-04-15T03:48:12.685Z,7.7
2017-04-15T03:49:15.048Z,7.6
2017-04-15T03:50:17.506Z,7.5
2017-04-15T03:51:20.059Z,7.6
2017-04-15T03:52:22.486Z,7.6
2017-04-15T03:53:24.844Z,7.6
2017-04-15T03:54:27.351Z,7.6
2017-04-15T03:55:29.734Z,7.6
2017-04-15T03:56:32.155Z,7.6
2017-04-15T03:57:34.561Z,7.5
2017-04-15T03:58:36.924Z,7.6
2017-04-15T03:59:39.319Z,7.6
2017-04-15T04:00:41.690Z,7.6
2017-04-15T04:01:44.076Z,7.5
2017-04-15T04:02:46.478Z,7.6
2017-04-15T04:03:48.913Z,7.5
2017-04-15T04:04:51.286Z,7.5
2017-04-15T04:05:53.659Z,7.6
2017-04-15T04:06:56.080Z,7.6
2017-04-15T04:07:58.520Z,7.6
2017-04-15T04:09:00.912Z,7.5
2017-04-15T04:10:03.317Z,7.5
2017-04-15T04:11:05.673Z,7.6
2017-04-15T04:12:08.042Z,7.6
2017-04-15T04:13:10.476Z,7.6
2017-04-15T04:14:12.864Z,7.6
2017-04-15T04:15:15.269Z,7.6
2017-04-15T04:16:17.684Z,7.6
2017-04-15T04:17:20.078Z,7.7
2017-04-15T04:18:22.513Z,7.7
2017-04-15T04:19:24.927Z,7.5
2017-04-15T04:20:27.308Z,7.6
2017-04-15T04:21:29.732Z,7.5
2017-04-15T04:22:32.137Z,7.6
2017-04-15T04:23:34.546Z,7.6
2017-04-15T04:24:36.910Z,7.6
2017-04-15T04:25:39.285Z,7.5
2017-04-15T04:26:41.692Z,7.6
2017-04-15T04:27:44.193Z,7.5
2017-04-15T04:28:46.643Z,7.5
2017-04-15T04:29:49.062Z,7.6
2017-04-15T04:30:51.680Z,7.6
2017-04-15T04:31:54.038Z,7.6
2017-04-15T04:32:56.433Z,7.6
2017-04-15T04:33:58.865Z,7.6
2017-04-15T04:35:01.289Z,7.6
2017-04-15T04:36:03.685Z,7.6
2017-04-15T04:37:06.076Z,7.7
2017-04-15T04:38:08.511Z,7.6
2017-04-15T04:39:10.987Z,7.6
2017-04-15T04:40:13.421Z,7.7
2017-04-15T04:41:15.799Z,7.7
2017-04-15T04:42:18.419Z,7.7
2017-04-15T04:43:20.798Z,7.7
2017-04-15T04:44:23.501Z,7.6
2017-04-15T04:45:25.868Z,7.7
2017-04-15T04:46:28.301Z,7.7
2017-04-15T04:47:30.692Z,7.7
2017-04-15T04:48:33.072Z,7.7
2017-04-15T04:49:35.626Z,7.7
2017-04-15T04:50:38.024Z,7.7
2017-04-15T04:51:40.420Z,7.8
2017-04-15T04:52:42.834Z,7.7
2017-04-15T04:53:45.191Z,7.7
2017-04-15T04:54:47.706Z,7.8
2017-04-15T04:55:50.134Z,7.7
2017-04-15T04:56:52.520Z,7.7
2017-04-15T04:57:54.880Z,7.8
2017-04-15T04:58:57.278Z,7.8
2017-04-15T04:59:59.677Z,7.8
2017-04-15T05:01:02.176Z,7.8
2017-04-15T05:02:04.569Z,7.8
2017-04-15T05:03:06.929Z,7.8
2017-04-15T05:04:09.852Z,7.9
2017-04-15T05:05:12.265Z,7.8
2017-04-15T05:06:14.650Z,7.9
2017-04-15T05:07:17.019Z,7.8
2017-04-15T05:08:19.402Z,7.8
2017-04-15T05:09:21.820Z,7.8
2017-04-15T05:10:24.253Z,7.8
2017-04-15T05:11:26.646Z,7.9
2017-04-15T05:12:29.071Z,7.9
2017-04-15T05:13:31.444Z,7.9
2017-04-15T05:14:33.827Z,7.9
2017-04-15T05:15:36.543Z,7.9
2017-04-15T05:16:38.922Z,7.9
2017-04-15T05:17:41.306Z,8
2017-04-15T05:18:43.689Z,8
2017-04-15T05:19:46.061Z,8
2017-04-15T05:20:48.453Z,7.9
2017-04-15T05:21:50.847Z,7.9
2017-04-15T05:22:53.432Z,8
2017-04-15T05:23:55.901Z,7.9
2017-04-15T05:24:58.332Z,7.8
2017-04-15T05:26:01.483Z,8
2017-04-15T05:27:03.860Z,8
2017-04-15T05:28:06.226Z,7.9
2017-04-15T05:29:08.664Z,8.1
2017-04-15T05:30:11.038Z,8
2017-04-15T05:31:13.422Z,8
2017-04-15T05:32:15.825Z,8
2017-04-15T05:33:18.215Z,8
2017-04-15T05:34:20.631Z,8.1
2017-04-15T05:35:23.044Z,8
2017-04-15T05:36:25.479Z,8
2017-04-15T05:37:27.855Z,8
2017-04-15T05:38:30.279Z,8.1
2017-04-15T05:39:32.736Z,8.1
2017-04-15T05:40:35.170Z,8.1
2017-04-15T05:41:37.563Z,8.1
2017-04-15T05:42:39.957Z,8.2
2017-04-15T05:43:42.340Z,8.2
2017-04-15T05:44:44.697Z,8.2
2017-04-15T05:45:47.079Z,8.2
2017-04-15T05:46:50.318Z,8.2
2017-04-15T05:47:52.740Z,8.2
2017-04-15T05:48:55.115Z,8.2
2017-04-15T05:49:57.520Z,8.2
2017-04-15T05:50:59.950Z,8.2
2017-04-15T05:52:02.402Z,8.3
2017-04-15T05:53:04.774Z,8.3
2017-04-15T05:54:07.176Z,8.3
2017-04-15T05:55:09.683Z,8.3
2017-04-15T05:56:12.073Z,8.2
2017-04-15T05:57:14.427Z,8.2
2017-04-15T05:58:17.095Z,8.2
2017-04-15T05:59:19.593Z,8.3
2017-04-15T06:00:22.083Z,8.3
2017-04-15T06:01:24.494Z,8.2
2017-04-15T06:02:26.894Z,8.2
2017-04-15T06:03:29.310Z,8.2
2017-04-15T06:04:31.810Z,8.3
2017-04-15T06:05:34.241Z,8.2
2017-04-15T06:06:36.731Z,8.3
2017-04-15T06:07:39.173Z,8.3
2017-04-15T06:08:41.570Z,8.3
2017-04-15T06:09:44.060Z,8.3
2017-04-15T06:10:46.419Z,8.3
2017-04-15T06:11:48.853Z,8.2
2017-04-15T06:12:51.260Z,8.3
2017-04-15T06:13:53.677Z,8.4
2017-04-15T06:14:56.067Z,8.4
2017-04-15T06:15:58.467Z,8.3
2017-04-15T06:17:00.894Z,8.3
2017-04-15T06:18:03.343Z,8.3
2017-04-15T06:19:05.789Z,8.3
2017-04-15T06:20:08.148Z,8.3
2017-04-15T06:21:10.718Z,8.4
2017-04-15T06:22:13.098Z,8.4
2017-04-15T06:23:15.466Z,8.4
2017-04-15T06:24:17.855Z,8.5
2017-04-15T06:25:20.219Z,8.5
2017-04-15T06:26:22.654Z,8.5
2017-04-15T06:27:25.087Z,8.6
2017-04-15T06:28:27.515Z,8.5
2017-04-15T06:29:29.975Z,8.5
2017-04-15T06:30:32.363Z,8.5
2017-04-15T06:31:34.756Z,8.6
2017-04-15T06:32:37.213Z,8.7
2017-04-15T06:33:39.646Z,8.8
2017-04-15T06:34:42.032Z,8.7
2017-04-15T06:35:44.442Z,8.6
2017-04-15T06:36:46.841Z,8.8
2017-04-15T06:37:49.297Z,8.9
2017-04-15T06:38:51.709Z,8.8
2017-04-15T06:39:54.134Z,8.7
2017-04-15T06:40:56.544Z,8.8
2017-04-15T06:41:58.998Z,8.9
2017-04-15T06:43:01.395Z,8.9
2017-04-15T06:44:03.863Z,9
2017-04-15T06:45:06.390Z,8.9
2017-04-15T06:46:08.843Z,9
2017-04-15T06:47:11.248Z,9
2017-04-15T06:48:13.638Z,9.1
2017-04-15T06:49:16.047Z,9.1
2017-04-15T06:50:18.479Z,9.2
2017-04-15T06:51:20.928Z,9.2
2017-04-15T06:52:23.353Z,9.3
2017-04-15T06:53:25.812Z,9.1
2017-04-15T06:54:28.278Z,9.1
2017-04-15T06:55:30.732Z,9.2
2017-04-15T06:56:33.298Z,9.3
2017-04-15T06:57:35.736Z,9.2
2017-04-15T06:58:39.753Z,9.4
2017-04-15T06:59:42.180Z,9.3
2017-04-15T07:00:44.639Z,9.4
2017-04-15T07:01:47.064Z,9.4
2017-04-15T07:02:49.464Z,9.5
2017-04-15T07:03:51.895Z,9.4
2017-04-15T07:04:54.335Z,9.4
2017-04-15T07:05:57.004Z,9.5
2017-04-15T07:06:59.514Z,9.4
2017-04-15T07:08:01.942Z,9.3
2017-04-15T07:09:04.369Z,9.3
2017-04-15T07:10:06.829Z,9.4
2017-04-15T07:11:09.302Z,9.5
2017-04-15T07:12:11.722Z,9.5
2017-04-15T07:13:14.156Z,9.4
2017-04-15T07:14:16.552Z,9.4
2017-04-15T07:15:18.994Z,9.6
2017-04-15T07:16:21.411Z,9.6
2017-04-15T07:17:23.846Z,9.6
2017-04-15T07:18:26.401Z,9.6
2017-04-15T07:19:28.822Z,9.5
2017-04-15T07:20:31.453Z,9.6
2017-04-15T07:21:34.887Z,9.7
2017-04-15T07:22:37.347Z,9.6
2017-04-15T07:23:39.735Z,9.6
2017-04-15T07:24:42.147Z,9.6
2017-04-15T07:25:44.622Z,9.7
2017-04-15T07:26:47.163Z,9.8
2017-04-15T07:27:49.576Z,9.8
2017-04-15T07:28:52.022Z,9.9
2017-04-15T07:29:54.489Z,9.7
2017-04-15T07:30:56.908Z,9.9
2017-04-15T07:31:59.336Z,9.8
2017-04-15T07:33:01.779Z,9.9
2017-04-15T07:34:04.859Z,9.8
2017-04-15T07:35:07.325Z,9.9
2017-04-15T07:36:09.744Z,9.8
2017-04-15T07:37:12.173Z,9.8
2017-04-15T07:38:14.664Z,9.7
2017-04-15T07:39:17.056Z,9.6
2017-04-15T07:40:20.133Z,9.8
2017-04-15T07:41:22.625Z,9.7
2017-04-15T07:42:25.086Z,9.8
2017-04-15T07:43:27.588Z,9.9
2017-04-15T07:44:29.983Z,10.2
2017-04-15T07:45:32.553Z,10
2017-04-15T07:46:35.052Z,10
2017-04-15T07:47:37.829Z,10
2017-04-15T07:48:41.264Z,9.9
2017-04-15T07:49:43.899Z,10.2
2017-04-15T07:50:46.415Z,10
2017-04-15T07:51:48.883Z,9.9
2017-04-15T07:52:51.329Z,9.9
2017-04-15T07:53:53.798Z,9.9
2017-04-15T07:54:56.539Z,9.8
2017-04-15T07:55:58.961Z,9.8
2017-04-15T07:57:01.501Z,9.9
2017-04-15T07:58:03.944Z,9.7
2017-04-15T07:59:06.444Z,9.6
2017-04-15T08:00:08.948Z,9.7
2017-04-15T08:01:11.396Z,9.8
2017-04-15T08:02:13.873Z,9.9
2017-04-15T08:03:16.296Z,10
2017-04-15T08:04:18.744Z,10.3
2017-04-15T08:05:21.284Z,10.3
2017-04-15T08:06:23.758Z,10.4
2017-04-15T08:07:26.264Z,10.4
2017-04-15T08:08:28.809Z,10.6
2017-04-15T08:09:31.245Z,10.8
2017-04-15T08:10:33.727Z,10.8
2017-04-15T08:11:36.986Z,10.5
2017-04-15T08:12:39.496Z,10.4
2017-04-15T08:13:41.990Z,10.4
2017-04-15T08:14:44.417Z,10.5
2017-04-15T08:15:46.912Z,10.2
2017-04-15T08:16:49.404Z,10.3
2017-04-15T08:17:51.868Z,10.2
2017-04-15T08:18:54.343Z,10.2
2017-04-15T08:19:56.806Z,10.1
2017-04-15T08:20:59.254Z,10.2
2017-04-15T08:22:01.768Z,10.2
2017-04-15T08:23:04.233Z,10.3
2017-04-15T08:24:08.264Z,10.3
2017-04-15T08:25:10.963Z,10.3
2017-04-15T08:26:13.665Z,10
2017-04-15T08:27:17.201Z,10.1
2017-04-15T08:28:20.148Z,10.1
2017-04-15T08:29:23.198Z,10.1
2017-04-15T08:30:25.985Z,10.1
2017-04-15T08:31:29.847Z,10
2017-04-15T08:32:33.267Z,9.8
2017-04-15T08:33:37.421Z,9.8
2017-04-15T08:34:40.904Z,9.6
2017-04-15T08:35:43.805Z,10
2017-04-15T08:36:47.494Z,10.1
2017-04-15T08:37:56.997Z,10.3
2017-04-15T08:39:02.102Z,10.1
2017-04-15T08:40:05.604Z,10.1
2017-04-15T08:41:10.305Z,10
2017-04-15T08:42:12.820Z,9.8
2017-04-15T08:43:15.579Z,9.7
2017-04-15T08:44:18.134Z,9.6
2017-04-15T08:45:20.732Z,9.5
2017-04-15T08:46:23.251Z,9.7
2017-04-15T08:47:26.099Z,9.8
2017-04-15T08:48:28.746Z,9.9
2017-04-15T08:49:31.803Z,9.6
2017-04-15T08:50:34.321Z,9.6
2017-04-15T08:51:38.497Z,9.6
2017-04-15T08:52:42.108Z,9.6
2017-04-15T08:53:46.917Z,9.5
2017-04-15T08:54:50.237Z,9.6
2017-04-15T08:55:52.997Z,9.6
2017-04-15T08:56:56.800Z,9.6
2017-04-15T08:58:00.012Z,9.6
2017-04-15T08:59:05.477Z,9.5
2017-04-15T09:00:08.506Z,9.6
2017-04-15T09:01:11.163Z,9.6
2017-04-15T09:02:13.985Z,9.4
2017-04-15T09:03:17.068Z,9.4
2017-04-15T09:04:21.213Z,9.4
2017-04-15T09:05:24.342Z,9.5
2017-04-15T09:06:30.319Z,9.4
2017-04-15T09:07:33.489Z,9.4
2017-04-15T09:08:36.093Z,9.5
2017-04-15T09:09:39.900Z,9.6
2017-04-15T09:10:42.507Z,9.6
2017-04-15T09:11:48.071Z,9.7
2017-04-15T09:14:12.519Z,9.8
2017-04-15T09:15:22.966Z,9.8
2017-04-15T09:16:28.085Z,9.9
2017-04-15T09:17:32.382Z,9.9
2017-04-15T09:18:36.837Z,9.9
2017-04-15T09:19:39.698Z,10
2017-04-15T09:20:45.320Z,10
2017-04-15T09:21:54.377Z,9.9
2017-04-15T09:22:58.109Z,9.9
2017-04-15T09:24:01.384Z,9.9
2017-04-15T09:25:05.178Z,9.9
2017-04-15T09:26:08.254Z,9.8
2017-04-15T09:27:11.430Z,9.8
2017-04-15T09:29:46.009Z,9.9
2017-04-15T09:30:49.869Z,9.9
2017-04-15T09:31:55.222Z,9.8
2017-04-15T09:33:03.298Z,9.7
2017-04-15T09:34:14.761Z,9.7
2017-04-15T09:35:17.723Z,9.8
2017-04-15T09:36:20.578Z,9.8
2017-04-15T09:37:27.279Z,9.8
2017-04-15T09:38:51.550Z,9.9
2017-04-15T09:40:10.431Z,9.8
2017-04-15T09:41:13.449Z,9.8
2017-04-15T09:43:31.365Z,9.8
2017-04-15T09:44:35.120Z,9.9
2017-04-15T09:45:38.105Z,9.8
2017-04-15T09:46:46.586Z,9.9
2017-04-15T09:47:52.317Z,10.1
2017-04-15T09:48:57.095Z,10
2017-04-15T09:50:00.644Z,10
2017-04-15T09:51:03.509Z,10
2017-04-15T09:52:09.917Z,9.8
2017-04-15T09:53:12.558Z,9.9
2017-04-15T09:54:15.138Z,9.9
2017-04-15T09:55:17.825Z,10
2017-04-15T09:56:24.025Z,10.1
2017-04-15T09:57:28.556Z,9.9
2017-04-15T09:58:35.059Z,9.9
2017-04-15T09:59:44.494Z,9.9
2017-04-15T10:02:15.453Z,9.9
2017-04-15T10:03:18.049Z,9.9
2017-04-15T10:04:21.260Z,9.9
2017-04-15T10:05:26.396Z,9.8
2017-04-15T10:06:30.149Z,9.8
2017-04-15T10:07:33.124Z,9.8
2017-04-15T10:08:36.476Z,9.8
2017-04-15T10:09:39.206Z,9.9
2017-04-15T10:10:43.302Z,9.9
2017-04-15T10:11:45.817Z,9.6
2017-04-15T10:12:49.829Z,9.8
2017-04-15T10:13:52.846Z,9.7
2017-04-15T10:14:55.536Z,9.8
2017-04-15T10:15:58.750Z,9.8
2017-04-15T10:17:02.117Z,9.9
2017-04-15T10:18:05.227Z,10
2017-04-15T10:19:07.927Z,9.8
2017-04-15T10:20:10.457Z,9.9
2017-04-15T10:21:12.925Z,10.5
2017-04-15T10:22:16.150Z,10.6
2017-04-15T10:23:18.699Z,10.6
2017-04-15T10:24:21.943Z,10.6
2017-04-15T10:25:24.434Z,10.6
2017-04-15T10:26:26.949Z,10.6
2017-04-15T10:27:29.580Z,10.6
2017-04-15T10:28:32.052Z,10.6
2017-04-15T10:29:35.580Z,10.5
2017-04-15T10:30:38.080Z,10.4
2017-04-15T10:31:40.677Z,10.4
2017-04-15T10:32:44.744Z,10.4
2017-04-15T10:33:47.413Z,10.4
2017-04-15T10:34:50.052Z,10.4
2017-04-15T10:35:52.659Z,10.5
2017-04-15T10:36:55.761Z,10.5
2017-04-15T10:37:58.381Z,10.5
2017-04-15T10:39:00.896Z,10.6
2017-04-15T10:40:03.487Z,10.8
2017-04-15T10:41:06.041Z,10.9
2017-04-15T10:42:08.580Z,10.9
2017-04-15T10:43:11.101Z,10.8
2017-04-15T10:44:13.781Z,10.8
2017-04-15T10:45:16.298Z,11
2017-04-15T10:46:18.828Z,11.3
2017-04-15T10:47:21.520Z,11.4
2017-04-15T10:48:24.055Z,11.3
2017-04-15T10:49:26.614Z,11.4
2017-04-15T10:50:30.041Z,11.5
2017-04-15T10:51:32.694Z,11.3
2017-04-15T10:52:35.949Z,11.5
2017-04-15T10:53:38.536Z,11.4
2017-04-15T10:54:41.330Z,11.4
2017-04-15T10:55:44.152Z,11.3
2017-04-15T10:56:47.028Z,11.3
2017-04-15T10:57:49.683Z,11.4
2017-04-15T10:58:52.218Z,11.4
2017-04-15T10:59:54.814Z,11.5
2017-04-15T11:00:57.221Z,11.5
2017-04-15T11:01:59.739Z,11.5
2017-04-15T11:03:02.405Z,11.4
2017-04-15T11:04:04.971Z,11.5
2017-04-15T11:05:07.439Z,11.5
2017-04-15T11:06:10.040Z,11.5
2017-04-15T11:07:12.672Z,11.5
2017-04-15T11:08:15.233Z,11.6
2017-04-15T11:09:17.745Z,11.7
2017-04-15T11:10:20.332Z,11.7
2017-04-15T11:11:22.889Z,11.9
2017-04-15T11:12:26.087Z,11.9
2017-04-15T11:13:29.379Z,11.9
2017-04-15T11:14:31.868Z,11.9
2017-04-15T11:15:34.952Z,11.9
2017-04-15T11:16:37.585Z,12
2017-04-15T11:17:40.119Z,12.1
2017-04-15T11:18:43.325Z,12
2017-04-15T11:19:46.178Z,12.1
2017-04-15T11:20:48.704Z,11.9
2017-04-15T11:21:51.271Z,11.8
2017-04-15T11:22:53.852Z,11.7
2017-04-15T11:23:56.371Z,11.7
2017-04-15T11:24:58.896Z,11.7
2017-04-15T11:26:01.402Z,11.7
2017-04-15T11:27:03.900Z,11.6
2017-04-15T11:28:06.432Z,11.6
2017-04-15T11:29:09.056Z,11.6
2017-04-15T11:30:11.813Z,11.6
2017-04-15T11:31:14.364Z,11.6
2017-04-15T11:32:17.099Z,11.5
2017-04-15T11:33:19.612Z,11.5
2017-04-15T11:34:22.188Z,11.4
2017-04-15T11:35:25.364Z,11.4
2017-04-15T11:36:27.887Z,11.4
2017-04-15T11:37:30.409Z,11.3
2017-04-15T11:38:32.945Z,11.4
2017-04-15T11:39:35.563Z,11.3
2017-04-15T11:40:38.142Z,11.4
2017-04-15T11:41:40.632Z,11.4
2017-04-15T11:42:43.144Z,11.2
2017-04-15T11:43:45.662Z,11.3
2017-04-15T11:44:48.192Z,11.1
2017-04-15T11:45:50.770Z,11.2
2017-04-15T11:46:53.369Z,11.2
2017-04-15T11:47:56.644Z,11.1
2017-04-15T11:48:59.143Z,11.1
2017-04-15T11:50:01.713Z,11.1
2017-04-15T11:51:04.429Z,11
2017-04-15T11:52:07.592Z,10.9
2017-04-15T11:53:10.040Z,10.9
2017-04-15T11:54:12.603Z,10.9
2017-04-15T11:55:15.139Z,10.7
2017-04-15T11:56:17.685Z,10.8
2017-04-15T11:57:20.232Z,10.8
2017-04-15T11:58:23.515Z,10.8
2017-04-15T11:59:26.049Z,10.6
2017-04-15T12:00:28.587Z,10.7
2017-04-15T12:01:31.166Z,10.7
2017-04-15T12:02:33.718Z,10.7
2017-04-15T12:03:36.264Z,10.7
2017-04-15T12:04:38.814Z,10.6
2017-04-15T12:05:41.569Z,10.6
2017-04-15T12:06:44.779Z,10.6
2017-04-15T12:07:47.363Z,10.5
2017-04-15T12:08:49.926Z,10.5
2017-04-15T12:09:52.577Z,10.5
2017-04-15T12:10:55.068Z,10.5
2017-04-15T12:11:57.600Z,10.3
2017-04-15T12:13:00.093Z,10.4
2017-04-15T12:14:03.506Z,10.4
2017-04-15T12:15:07.064Z,10.3
2017-04-15T12:16:10.930Z,10.3
2017-04-15T12:17:13.574Z,10.4
2017-04-15T12:18:16.153Z,10.3
2017-04-15T12:19:18.664Z,10.4
2017-04-15T12:20:21.257Z,10.3
2017-04-15T12:21:24.133Z,10.3
2017-04-15T12:22:27.378Z,10.3
2017-04-15T12:23:30.394Z,10.3
2017-04-15T12:24:33.029Z,10.3
2017-04-15T12:25:35.630Z,10.2
2017-04-15T12:26:38.967Z,10.2
2017-04-15T12:27:41.733Z,10.2
2017-04-15T12:28:45.689Z,10.2
2017-04-15T12:29:48.276Z,10.2
2017-04-15T12:30:51.626Z,10.2
2017-04-15T12:31:54.920Z,10.1
2017-04-15T12:32:57.505Z,10.1
2017-04-15T12:34:00.106Z,10.1
2017-04-15T12:35:02.609Z,10.1
2017-04-15T12:36:06.094Z,10.1
2017-04-15T12:37:09.209Z,10.1
2017-04-15T12:38:11.925Z,10.1
2017-04-15T12:39:14.506Z,10.1
2017-04-15T12:40:17.163Z,10.2
2017-04-15T12:41:19.741Z,10.2
2017-04-15T12:42:22.282Z,10.2
2017-04-15T12:43:25.233Z,10.2
2017-04-15T12:44:29.167Z,10
2017-04-15T12:45:32.619Z,10.1
2017-04-15T12:46:35.254Z,10.1
2017-04-15T12:47:37.908Z,10.1
2017-04-15T12:48:40.556Z,10.1
2017-04-15T12:49:43.144Z,10.1
2017-04-15T12:50:45.763Z,9.9
2017-04-15T12:51:49.051Z,10
2017-04-15T12:52:51.658Z,10
2017-04-15T12:53:54.272Z,10
2017-04-15T12:54:56.991Z,9.9
2017-04-15T12:56:00.370Z,10
2017-04-15T12:57:02.981Z,10
2017-04-15T12:58:05.576Z,10.1
2017-04-15T12:59:09.131Z,10.1
2017-04-15T13:00:12.110Z,10
2017-04-15T13:01:14.691Z,10.1
2017-04-15T13:02:17.265Z,10
2017-04-15T13:03:19.949Z,10
2017-04-15T13:04:22.439Z,10
2017-04-15T13:05:26.453Z,10
2017-04-15T13:10:46.345Z,9.9
2017-04-15T13:11:49.618Z,9.9
2017-04-15T13:12:52.177Z,9.9
2017-04-15T13:13:54.669Z,9.9
2017-04-15T13:14:59.847Z,9.9
2017-04-15T13:16:03.061Z,9.8
2017-04-15T13:17:08.541Z,9.7
2017-04-15T13:18:11.756Z,9.8
2017-04-15T13:19:14.664Z,9.8
2017-04-15T13:20:18.111Z,9.6
2017-04-15T13:21:24.437Z,9.8
2017-04-15T13:22:27.843Z,9.8
2017-04-15T13:23:30.828Z,9.8
2017-04-15T13:24:33.989Z,9.8
2017-04-15T13:25:36.987Z,9.8
2017-04-15T13:26:43.011Z,9.8
2017-04-15T13:27:45.574Z,9.8
2017-04-15T13:28:49.747Z,9.8
2017-04-15T13:29:53.986Z,9.8
2017-04-15T13:30:56.789Z,9.8
2017-04-15T13:31:59.849Z,9.8
2017-04-15T13:33:03.347Z,9.6
2017-04-15T13:34:07.018Z,9.8
2017-04-15T13:35:11.374Z,9.8
2017-04-15T13:36:14.080Z,9.8
2017-04-15T13:37:17.032Z,9.7
2017-04-15T13:38:20.092Z,9.8
2017-04-15T13:39:23.191Z,9.8
2017-04-15T13:40:25.716Z,9.8
2017-04-15T13:41:28.637Z,9.8
2017-04-15T13:42:32.042Z,9.9
2017-04-15T13:43:35.019Z,9.9
2017-04-15T13:44:38.221Z,9.9
2017-04-15T13:45:42.187Z,9.9
2017-04-15T13:46:45.238Z,9.8
2017-04-15T13:47:49.158Z,9.8
2017-04-15T13:48:53.019Z,9.7
2017-04-15T13:49:55.635Z,9.8
2017-04-15T13:50:58.666Z,9.8
2017-04-15T13:52:01.233Z,9.8
2017-04-15T13:53:03.873Z,9.7
2017-04-15T13:54:06.391Z,9.8
2017-04-15T13:55:09.383Z,9.8
2017-04-15T13:56:12.086Z,9.8
2017-04-15T13:57:14.665Z,9.8
2017-04-15T13:58:17.167Z,9.8
2017-04-15T13:59:19.776Z,9.8
2017-04-15T14:00:22.401Z,9.8
2017-04-15T14:01:25.018Z,9.8
2017-04-15T14:02:27.761Z,9.6
2017-04-15T14:03:30.368Z,9.8
2017-04-15T14:04:33.037Z,9.8
2017-04-15T14:05:35.752Z,9.8
2017-04-15T14:06:38.522Z,9.8
2017-04-15T14:07:41.130Z,9.8
2017-04-15T14:08:43.876Z,9.8
2017-04-15T14:09:46.442Z,9.8
2017-04-15T14:10:49.666Z,9.8
2017-04-15T14:11:53.059Z,9.9
2017-04-15T14:12:55.622Z,9.7
2017-04-15T14:13:58.369Z,9.9
2017-04-15T14:15:01.044Z,10
2017-04-15T14:16:03.809Z,10.1
2017-04-15T14:17:06.399Z,10.1
2017-04-15T14:18:09.053Z,10.1
2017-04-15T14:19:11.784Z,10.1
2017-04-15T14:20:14.381Z,10.1
2017-04-15T14:21:17.014Z,10.2
2017-04-15T14:22:19.608Z,10.2
2017-04-15T14:23:22.168Z,10.2
2017-04-15T14:24:24.715Z,10.3
2017-04-15T14:25:27.305Z,10.3
2017-04-15T14:26:30.279Z,10.3
2017-04-15T14:27:32.873Z,10.3
2017-04-15T14:28:35.429Z,10.4
2017-04-15T14:29:38.066Z,10.2
2017-04-15T14:30:40.702Z,10.4